createdAt,value
2022-11-26T00:01:31.208Z,3.70
2022-11-26T00:04:03.949Z,3.00
2022-11-26T00:06:37.361Z,3.00
2022-11-26T00:09:08.607Z,3.13
2022-11-26T00:11:38.338Z,3.33
2022-11-26T00:14:15.336Z,3.63
2022-11-26T00:16:45.311Z,3.97
2022-11-26T00:19:17.712Z,3.67
2022-11-26T00:21:47.483Z,3.27
2022-11-26T00:24:29.761Z,3.30
2022-11-26T00:27:01.806Z,3.30
2022-11-26T00:29:31.595Z,3.93
2022-11-26T00:32:01.419Z,3.80
2022-11-26T00:34:33.805Z,3.70
2022-11-26T00:37:03.575Z,3.70
2022-11-26T00:39:33.339Z,3.57
2022-11-26T00:42:03.328Z,3.20
2022-11-26T00:44:35.423Z,3.27
2022-11-26T00:47:05.568Z,3.00
2022-11-26T00:49:37.880Z,3.17
2022-11-26T00:52:12.897Z,3.93
2022-11-26T00:54:42.598Z,2.60
2022-11-26T00:57:13.676Z,3.07
2022-11-26T00:59:43.351Z,2.90
2022-11-26T01:02:13.702Z,2.80
2022-11-26T01:04:46.051Z,3.03
2022-11-26T01:07:15.836Z,2.80
2022-11-26T01:09:47.388Z,3.03
2022-11-26T01:12:17.984Z,3.60
2022-11-26T01:14:47.707Z,2.87
2022-11-26T01:17:17.419Z,3.37
2022-11-26T01:19:49.766Z,3.00
2022-11-26T01:22:23.791Z,2.97
2022-11-26T01:24:53.605Z,2.63
2022-11-26T01:27:23.956Z,2.80
2022-11-26T01:29:53.644Z,2.80
2022-11-26T01:32:29.205Z,3.23
2022-11-26T01:35:01.851Z,3.67
2022-11-26T01:37:31.571Z,3.10
2022-11-26T01:40:01.388Z,2.90
2022-11-26T01:42:44.368Z,3.00
2022-11-26T01:45:18.663Z,3.07
2022-11-26T01:47:49.299Z,3.10
2022-11-26T01:50:55.013Z,3.17
2022-11-26T01:53:32.717Z,2.93
2022-11-26T01:56:04.777Z,3.20
2022-11-26T01:58:40.233Z,3.20
2022-11-26T02:01:10.578Z,3.00
2022-11-26T02:03:46.749Z,2.40
2022-11-26T02:06:23.934Z,2.70
2022-11-26T02:08:53.962Z,2.77
2022-11-26T02:11:27.992Z,2.90
2022-11-26T02:14:03.151Z,2.70
2022-11-26T02:16:57.024Z,2.73
2022-11-26T02:20:03.143Z,3.10
2022-11-26T02:23:05.142Z,2.93
2022-11-26T02:26:05.931Z,3.13
2022-11-26T02:28:55.234Z,2.60
2022-11-26T02:31:35.603Z,2.53
2022-11-26T02:34:14.968Z,2.60
2022-11-26T02:36:52.535Z,2.90
2022-11-26T02:39:24.417Z,3.10
2022-11-26T02:41:57.048Z,3.43
2022-11-26T02:44:29.742Z,3.30
2022-11-26T02:47:06.804Z,3.40
2022-11-26T02:49:38.461Z,2.97
2022-11-26T02:52:10.145Z,2.90
2022-11-26T02:54:41.829Z,3.53
2022-11-26T02:57:15.756Z,3.60
2022-11-26T02:59:45.801Z,3.70
2022-11-26T03:02:26.667Z,3.20
2022-11-26T03:05:01.236Z,3.13
2022-11-26T03:07:33.118Z,3.13
2022-11-26T03:10:04.730Z,3.20
2022-11-26T03:12:34.569Z,3.47
2022-11-26T03:15:04.499Z,3.67
2022-11-26T03:17:37.127Z,3.13
2022-11-26T03:20:08.099Z,3.90
2022-11-26T03:22:37.930Z,3.67
2022-11-26T03:25:09.012Z,3.60
2022-11-26T03:27:38.859Z,3.37
2022-11-26T03:30:10.635Z,3.97
2022-11-26T03:32:43.097Z,3.80
2022-11-26T03:35:12.920Z,3.73
2022-11-26T03:37:42.728Z,4.40
2022-11-26T03:40:13.451Z,4.20
2022-11-26T03:42:43.177Z,4.07
2022-11-26T03:45:14.839Z,4.40
2022-11-26T03:47:47.861Z,3.50
2022-11-26T03:50:17.603Z,3.90
2022-11-26T03:52:47.313Z,3.83
2022-11-26T03:55:17.060Z,3.90
2022-11-26T03:57:46.815Z,3.87
2022-11-26T04:00:17.799Z,4.00
2022-11-26T04:02:50.316Z,3.70
2022-11-26T04:05:20.233Z,4.07
2022-11-26T04:07:50.144Z,4.10
2022-11-26T04:10:20.208Z,3.90
2022-11-26T04:12:49.947Z,4.10
2022-11-26T04:15:19.864Z,4.30
2022-11-26T04:17:52.202Z,4.37
2022-11-26T04:20:22.097Z,3.93
2022-11-26T04:22:51.829Z,4.30
2022-11-26T04:25:21.736Z,3.80
2022-11-26T04:27:51.509Z,3.87
2022-11-26T04:30:21.379Z,4.13
2022-11-26T04:32:53.769Z,3.80
2022-11-26T04:35:23.521Z,3.47
2022-11-26T04:37:53.310Z,3.17
2022-11-26T04:40:23.247Z,3.70
2022-11-26T04:42:53.054Z,3.87
2022-11-26T04:45:22.836Z,3.80
2022-11-26T04:50:42.449Z,3.40
2022-11-26T04:53:12.564Z,3.30
2022-11-26T04:55:42.297Z,3.70
2022-11-26T04:58:12.056Z,3.63
2022-11-26T05:00:41.848Z,3.50
2022-11-26T05:03:11.641Z,3.83
2022-11-26T05:05:44.409Z,3.43
2022-11-26T05:08:14.264Z,3.80
2022-11-26T05:10:44.271Z,3.70
2022-11-26T05:13:14.136Z,3.57
2022-11-26T05:15:43.881Z,3.57
2022-11-26T05:18:13.584Z,3.90
2022-11-26T05:20:45.973Z,3.90
2022-11-26T05:23:15.825Z,4.27
2022-11-26T05:25:45.640Z,4.13
2022-11-26T05:28:15.450Z,3.90
2022-11-26T05:30:45.506Z,4.10
2022-11-26T05:33:15.263Z,3.93
2022-11-26T05:35:47.639Z,4.27
2022-11-26T05:38:17.432Z,4.10
2022-11-26T05:40:47.406Z,3.97
2022-11-26T05:43:17.240Z,4.20
2022-11-26T05:45:47.040Z,4.33
2022-11-26T05:48:16.865Z,4.20
2022-11-26T05:50:54.369Z,4.13
2022-11-26T05:53:24.325Z,4.63
2022-11-26T05:55:54.222Z,4.00
2022-11-26T05:58:23.948Z,3.80
2022-11-26T06:00:53.791Z,4.20
2022-11-26T06:03:23.603Z,4.43
2022-11-26T06:05:56.123Z,4.10
2022-11-26T06:08:25.852Z,4.60
2022-11-26T06:10:55.563Z,4.63
2022-11-26T06:13:25.368Z,4.60
2022-11-26T06:15:55.096Z,4.23
2022-11-26T06:18:24.823Z,4.17
2022-11-26T06:20:57.124Z,4.07
2022-11-26T06:23:26.841Z,4.40
2022-11-26T06:25:57.589Z,4.20
2022-11-26T06:28:27.695Z,4.37
2022-11-26T06:30:57.512Z,4.67
2022-11-26T06:33:27.302Z,4.53
2022-11-26T06:36:01.851Z,4.87
2022-11-26T06:38:31.648Z,5.23
2022-11-26T06:41:02.709Z,4.50
2022-11-26T06:43:33.191Z,4.50
2022-11-26T06:46:05.805Z,4.37
2022-11-26T06:48:37.536Z,4.83
2022-11-26T06:51:11.729Z,5.10
2022-11-26T06:53:41.688Z,4.47
2022-11-26T06:56:18.474Z,4.83
2022-11-26T06:58:49.698Z,4.63
2022-11-26T07:01:21.493Z,4.40
2022-11-26T07:03:51.409Z,4.17
2022-11-26T07:06:25.910Z,5.20
2022-11-26T07:08:58.039Z,5.13
2022-11-26T07:11:28.526Z,6.37
2022-11-26T07:13:58.251Z,5.90
2022-11-26T07:16:28.412Z,7.60
2022-11-26T07:19:02.918Z,6.57
2022-11-26T07:21:35.731Z,6.23
2022-11-26T07:24:05.457Z,5.03
2022-11-26T07:26:35.340Z,4.93
2022-11-26T07:29:05.166Z,4.97
2022-11-26T07:31:36.287Z,5.33
2022-11-26T07:34:06.103Z,5.20
2022-11-26T07:36:43.059Z,5.70
2022-11-26T07:39:14.283Z,5.13
2022-11-26T07:41:45.163Z,4.87
2022-11-26T07:44:16.264Z,4.93
2022-11-26T07:46:45.995Z,5.17
2022-11-26T07:49:16.259Z,5.17
2022-11-26T07:51:48.627Z,5.73
2022-11-26T07:54:18.328Z,5.17
2022-11-26T07:56:48.023Z,5.57
2022-11-26T07:59:17.747Z,5.40
2022-11-26T08:01:48.383Z,4.87
2022-11-26T08:04:18.127Z,5.43
2022-11-26T08:06:50.535Z,6.37
2022-11-26T08:09:20.385Z,5.43
2022-11-26T08:11:50.106Z,5.43
2022-11-26T08:14:19.839Z,6.23
2022-11-26T08:16:49.570Z,5.43
2022-11-26T08:19:19.512Z,5.20
2022-11-26T08:21:51.847Z,5.97
2022-11-26T08:24:23.935Z,6.40
2022-11-26T08:26:53.657Z,5.33
2022-11-26T08:29:23.385Z,5.40
2022-11-26T08:31:53.179Z,5.57
2022-11-26T08:34:22.939Z,5.23
2022-11-26T08:36:58.190Z,5.50
2022-11-26T08:39:27.985Z,4.93
2022-11-26T08:41:58.909Z,5.27
2022-11-26T08:44:28.736Z,5.13
2022-11-26T08:46:58.440Z,5.47
2022-11-26T08:49:28.340Z,5.70
2022-11-26T08:52:00.975Z,4.97
2022-11-26T08:54:30.971Z,5.60
2022-11-26T08:57:00.698Z,5.03
2022-11-26T08:59:30.397Z,4.97
2022-11-26T09:02:00.334Z,5.60
2022-11-26T09:04:30.159Z,5.43
2022-11-26T09:07:02.594Z,5.27
2022-11-26T09:09:32.682Z,6.17
2022-11-26T09:12:06.641Z,5.70
2022-11-26T09:14:40.076Z,5.83
2022-11-26T09:17:10.679Z,5.57
2022-11-26T09:19:40.419Z,5.60
2022-11-26T09:22:12.788Z,5.93
2022-11-26T09:24:42.507Z,6.17
2022-11-26T09:27:13.497Z,5.70
2022-11-26T09:29:43.287Z,5.33
2022-11-26T09:32:24.460Z,5.53
2022-11-26T09:34:56.769Z,6.57
2022-11-26T09:37:29.069Z,5.90
2022-11-26T09:39:58.818Z,5.90
2022-11-26T09:42:41.184Z,5.83
2022-11-26T09:45:21.182Z,6.37
2022-11-26T09:47:55.655Z,5.43
2022-11-26T09:50:31.874Z,6.90
2022-11-26T09:53:08.143Z,7.20
2022-11-26T09:55:40.594Z,5.90
2022-11-26T09:58:15.135Z,7.50
2022-11-26T10:00:47.047Z,6.80
2022-11-26T10:03:19.146Z,7.07
2022-11-26T10:06:00.471Z,6.87
2022-11-26T10:08:49.547Z,7.13
2022-11-26T10:11:26.941Z,6.93
2022-11-26T10:14:06.071Z,6.33
2022-11-26T10:16:46.686Z,5.97
2022-11-26T10:19:26.122Z,6.43
2022-11-26T10:21:59.792Z,6.53
2022-11-26T10:24:36.979Z,6.90
2022-11-26T10:27:13.755Z,7.13
2022-11-26T10:29:46.272Z,7.13
2022-11-26T10:32:18.881Z,7.13
2022-11-26T10:34:53.256Z,6.23
2022-11-26T10:37:24.699Z,7.67
2022-11-26T10:40:04.503Z,7.17
2022-11-26T10:42:44.248Z,7.53
2022-11-26T10:45:22.433Z,6.40
2022-11-26T10:47:52.532Z,6.73
2022-11-26T10:50:46.833Z,6.77
2022-11-26T10:53:24.252Z,6.70
2022-11-26T10:55:58.319Z,5.90
2022-11-26T10:58:29.844Z,6.53
2022-11-26T11:01:06.045Z,6.80
2022-11-26T11:06:40.152Z,7.57
2022-11-26T11:09:33.083Z,7.70
2022-11-26T11:12:29.292Z,7.50
2022-11-26T11:14:59.434Z,6.37
2022-11-26T11:17:35.221Z,7.60
2022-11-26T11:20:26.279Z,7.73
2022-11-26T11:23:03.338Z,6.50
2022-11-26T11:25:36.013Z,8.20
2022-11-26T11:28:16.942Z,7.77
2022-11-26T11:30:47.477Z,8.20
2022-11-26T11:33:24.894Z,7.20
2022-11-26T11:36:03.286Z,7.90
2022-11-26T11:38:35.363Z,8.60
2022-11-26T11:41:07.864Z,7.30
2022-11-26T11:43:40.923Z,7.20
2022-11-26T11:46:28.178Z,7.33
2022-11-26T11:49:09.492Z,6.90
2022-11-26T11:51:49.205Z,7.37
2022-11-26T11:54:23.831Z,7.70
2022-11-26T11:57:03.841Z,7.77
2022-11-26T12:00:10.906Z,6.80
2022-11-26T12:03:14.511Z,7.77
2022-11-26T12:06:12.638Z,7.77
2022-11-26T12:08:53.533Z,7.13
2022-11-26T12:11:36.155Z,8.10
2022-11-26T12:14:13.991Z,6.80
2022-11-26T12:16:51.022Z,7.00
2022-11-26T12:19:28.402Z,6.83
2022-11-26T12:22:07.059Z,7.80
2022-11-26T12:24:44.740Z,9.07
2022-11-26T12:27:26.887Z,7.57
2022-11-26T12:30:01.837Z,7.80
2022-11-26T12:32:40.414Z,7.30
2022-11-26T12:35:18.568Z,7.10
2022-11-26T12:37:53.294Z,7.60
2022-11-26T12:40:33.421Z,6.10
2022-11-26T12:43:09.783Z,7.10
2022-11-26T12:45:51.003Z,7.17
2022-11-26T12:48:46.405Z,7.80
2022-11-26T12:51:36.320Z,7.87
2022-11-26T12:54:18.194Z,6.97
2022-11-26T12:56:59.984Z,8.33
2022-11-26T12:59:36.007Z,7.50
2022-11-26T13:02:22.498Z,7.10
2022-11-26T13:04:56.844Z,6.77
2022-11-26T13:07:45.451Z,7.63
2022-11-26T13:10:28.940Z,7.03
2022-11-26T13:13:08.173Z,6.30
2022-11-26T13:15:42.950Z,7.77
2022-11-26T13:18:19.929Z,8.23
2022-11-26T13:21:07.965Z,7.40
2022-11-26T13:24:00.914Z,7.67
2022-11-26T13:26:47.888Z,8.20
2022-11-26T13:29:38.502Z,7.47
2022-11-26T13:32:29.103Z,8.17
2022-11-26T13:35:16.501Z,8.67
2022-11-26T13:38:17.044Z,7.87
2022-11-26T13:41:21.898Z,8.07
2022-11-26T13:44:15.815Z,8.63
2022-11-26T13:46:49.596Z,7.67
2022-11-26T13:49:24.037Z,7.87
2022-11-26T13:51:58.316Z,7.73
2022-11-26T13:54:37.896Z,7.93
2022-11-26T13:57:12.211Z,8.53
2022-11-26T13:59:50.047Z,6.93
2022-11-26T14:02:42.755Z,7.67
2022-11-26T14:05:15.508Z,8.00
2022-11-26T14:07:46.420Z,7.77
2022-11-26T14:10:46.310Z,8.27
2022-11-26T14:13:18.101Z,6.87
2022-11-26T14:16:03.139Z,7.27
2022-11-26T14:19:05.291Z,7.87
2022-11-26T14:21:35.034Z,8.37
2022-11-26T14:24:04.765Z,7.90
2022-11-26T14:26:39.390Z,7.80
2022-11-26T14:29:17.635Z,8.33
2022-11-26T14:31:53.909Z,6.77
2022-11-26T14:34:31.895Z,6.73
2022-11-26T14:37:03.099Z,7.97
2022-11-26T14:39:33.476Z,8.03
2022-11-26T14:42:06.701Z,8.33
2022-11-26T14:44:36.972Z,8.33
2022-11-26T14:47:14.032Z,7.63
2022-11-26T14:49:47.167Z,8.13
2022-11-26T14:52:21.297Z,8.70
2022-11-26T14:54:54.470Z,7.00
2022-11-26T14:57:31.875Z,7.30
2022-11-26T15:00:03.073Z,7.83
2022-11-26T15:02:34.220Z,8.03
2022-11-26T15:05:05.312Z,7.53
2022-11-26T15:07:35.142Z,7.60
2022-11-26T15:10:07.582Z,6.93
2022-11-26T15:12:40.176Z,7.63
2022-11-26T15:15:16.223Z,8.73
2022-11-26T15:17:48.445Z,7.70
2022-11-26T15:20:20.759Z,8.40
2022-11-26T15:22:53.107Z,7.43
2022-11-26T15:25:24.938Z,7.67
2022-11-26T15:28:01.847Z,7.97
2022-11-26T15:30:32.974Z,7.60
2022-11-26T15:33:04.571Z,7.57
2022-11-26T15:35:36.390Z,8.07
2022-11-26T15:38:10.458Z,8.03
2022-11-26T15:40:48.449Z,8.10
2022-11-26T15:43:27.665Z,7.27
2022-11-26T15:46:01.269Z,8.13
2022-11-26T15:48:51.466Z,7.60
2022-11-26T15:51:33.743Z,7.43
2022-11-26T15:54:06.516Z,7.13
2022-11-26T15:56:39.840Z,7.47
2022-11-26T15:59:18.197Z,7.10
2022-11-26T16:01:49.994Z,7.00
2022-11-26T16:04:42.901Z,7.60
2022-11-26T16:07:15.106Z,8.97
2022-11-26T16:09:45.411Z,8.43
2022-11-26T16:12:33.034Z,9.97
2022-11-26T16:15:22.458Z,13.37
2022-11-26T16:17:53.341Z,14.50
2022-11-26T16:20:25.362Z,12.70
2022-11-26T16:22:57.203Z,9.50
2022-11-26T16:25:29.355Z,9.17
2022-11-26T16:28:10.161Z,8.47
2022-11-26T16:30:44.520Z,8.10
2022-11-26T16:33:14.322Z,8.50
2022-11-26T16:35:45.671Z,8.50
2022-11-26T16:38:22.188Z,8.87
2022-11-26T16:40:52.357Z,7.13
2022-11-26T16:43:22.734Z,8.97
2022-11-26T16:45:57.990Z,8.43
2022-11-26T16:48:29.903Z,8.27
2022-11-26T16:50:59.696Z,8.70
2022-11-26T16:53:29.409Z,8.37
2022-11-26T16:56:00.520Z,8.80
2022-11-26T16:58:32.283Z,9.13
2022-11-26T17:01:05.019Z,8.20
2022-11-26T17:03:35.567Z,8.80
2022-11-26T17:06:12.867Z,9.90
2022-11-26T17:08:49.255Z,9.73
2022-11-26T17:11:20.485Z,10.03
2022-11-26T17:13:50.372Z,9.37
2022-11-26T17:16:26.112Z,9.80
2022-11-26T17:18:56.052Z,9.60
2022-11-26T17:21:25.793Z,9.20
2022-11-26T17:23:55.533Z,8.63
2022-11-26T17:26:26.842Z,8.57
2022-11-26T17:28:56.576Z,8.77
2022-11-26T17:31:29.979Z,9.10
2022-11-26T17:33:59.879Z,8.33
2022-11-26T17:36:33.838Z,9.60
2022-11-26T17:39:06.628Z,8.97
2022-11-26T17:41:36.348Z,10.13
2022-11-26T17:44:06.233Z,10.80
2022-11-26T17:46:54.474Z,9.67
2022-11-26T17:49:28.507Z,9.53
2022-11-26T17:51:58.227Z,9.63
2022-11-26T17:54:27.929Z,9.87
2022-11-26T17:56:57.644Z,9.17
2022-11-26T17:59:28.757Z,9.13
2022-11-26T18:02:02.667Z,9.33
2022-11-26T18:04:32.796Z,9.87
2022-11-26T18:07:08.489Z,8.80
2022-11-26T18:09:38.845Z,9.10
2022-11-26T18:12:12.138Z,9.40
2022-11-26T18:14:44.088Z,9.57
2022-11-26T18:17:16.659Z,9.97
2022-11-26T18:19:46.693Z,10.43
2022-11-26T18:22:19.299Z,10.77
2022-11-26T18:24:56.845Z,10.80
2022-11-26T18:27:28.739Z,9.87
2022-11-26T18:29:59.654Z,8.97
2022-11-26T18:32:32.188Z,9.77
2022-11-26T18:35:01.913Z,9.17
2022-11-26T18:37:31.891Z,10.30
2022-11-26T18:40:01.808Z,9.90
2022-11-26T18:42:39.010Z,9.50
2022-11-26T18:45:11.967Z,10.13
2022-11-26T18:47:44.439Z,8.97
2022-11-26T18:50:14.599Z,9.10
2022-11-26T18:52:44.325Z,9.20
2022-11-26T18:55:17.737Z,9.20
2022-11-26T18:57:47.416Z,9.90
2022-11-26T19:00:18.128Z,8.93
2022-11-26T19:02:50.634Z,8.47
2022-11-26T19:05:20.672Z,8.90
2022-11-26T19:07:50.394Z,9.17
2022-11-26T19:10:20.217Z,8.90
2022-11-26T19:12:51.384Z,8.60
2022-11-26T19:15:21.080Z,9.80
2022-11-26T19:17:53.375Z,8.80
2022-11-26T19:20:23.095Z,8.83
2022-11-26T19:22:52.803Z,8.83
2022-11-26T19:25:22.515Z,8.80
2022-11-26T19:27:52.415Z,8.63
2022-11-26T19:30:23.150Z,9.37
2022-11-26T19:32:55.544Z,7.87
2022-11-26T19:35:26.256Z,7.50
2022-11-26T19:37:55.943Z,8.40
2022-11-26T19:40:25.640Z,8.40
2022-11-26T19:42:55.336Z,7.40
2022-11-26T19:45:26.344Z,7.63
2022-11-26T19:47:58.630Z,7.67
2022-11-26T19:50:29.035Z,8.50
2022-11-26T19:52:58.694Z,9.53
2022-11-26T19:55:28.409Z,9.43
2022-11-26T19:57:58.423Z,11.30
2022-11-26T20:00:28.144Z,9.23
2022-11-26T20:03:00.633Z,9.10
2022-11-26T20:05:30.367Z,8.43
2022-11-26T20:08:00.175Z,7.73
2022-11-26T20:10:29.944Z,7.90
2022-11-26T20:12:59.653Z,6.90
2022-11-26T20:15:29.385Z,7.33
2022-11-26T20:18:01.987Z,7.10
2022-11-26T20:20:31.687Z,8.63
2022-11-26T20:23:01.518Z,8.00
2022-11-26T20:25:34.748Z,6.90
2022-11-26T20:28:05.111Z,7.37
2022-11-26T20:30:35.268Z,7.73
2022-11-26T20:33:07.663Z,8.13
2022-11-26T20:35:37.420Z,7.87
2022-11-26T20:38:07.128Z,7.30
2022-11-26T20:40:36.832Z,7.10
2022-11-26T20:43:06.575Z,6.93
2022-11-26T20:45:36.483Z,7.10
2022-11-26T20:48:09.571Z,7.57
2022-11-26T20:50:40.644Z,9.97
2022-11-26T20:53:10.456Z,7.50
2022-11-26T20:55:40.175Z,7.07
2022-11-26T20:58:10.444Z,7.20
2022-11-26T21:00:44.164Z,7.90
2022-11-26T21:03:16.456Z,6.97
2022-11-26T21:05:46.188Z,7.77
2022-11-26T21:08:16.298Z,6.00
2022-11-26T21:10:46.416Z,5.97
2022-11-26T21:13:18.108Z,6.67
2022-11-26T21:15:50.169Z,6.23
2022-11-26T21:18:23.243Z,6.43
2022-11-26T21:20:54.075Z,5.60
2022-11-26T21:23:23.837Z,6.40
2022-11-26T21:25:53.570Z,5.37
2022-11-26T21:28:23.386Z,12.03
2022-11-26T21:30:53.213Z,5.77
2022-11-26T21:33:25.607Z,6.97
2022-11-26T21:35:55.294Z,6.20
2022-11-26T21:38:26.749Z,6.27
2022-11-26T21:40:56.684Z,6.07
2022-11-26T21:43:26.356Z,6.03
2022-11-26T21:45:56.081Z,5.93
2022-11-26T21:48:28.631Z,7.10
2022-11-26T21:50:58.368Z,7.03
2022-11-26T21:53:28.315Z,5.93
2022-11-26T21:55:58.009Z,6.13
2022-11-26T21:58:27.707Z,6.00
2022-11-26T22:00:59.064Z,5.97
2022-11-26T22:03:31.383Z,6.07
2022-11-26T22:06:02.049Z,5.37
2022-11-26T22:08:31.935Z,6.37
2022-11-26T22:11:01.632Z,5.33
2022-11-26T22:13:31.621Z,5.03
2022-11-26T22:16:01.384Z,5.80
2022-11-26T22:18:34.005Z,5.70
2022-11-26T22:21:03.713Z,5.00
2022-11-26T22:23:33.454Z,5.70
2022-11-26T22:26:03.220Z,4.80
2022-11-26T22:28:33.123Z,4.60
2022-11-26T22:31:02.893Z,5.10
2022-11-26T22:33:35.318Z,4.80
2022-11-26T22:36:05.060Z,4.80
2022-11-26T22:38:35.251Z,5.33
2022-11-26T22:41:06.038Z,4.47
2022-11-26T22:43:35.895Z,5.33
2022-11-26T22:46:07.221Z,4.73
2022-11-26T22:48:40.156Z,5.30
2022-11-26T22:51:10.317Z,4.90
2022-11-26T22:53:40.467Z,4.70
2022-11-26T22:56:10.992Z,5.20
2022-11-26T22:58:40.711Z,5.30
2022-11-26T23:01:11.592Z,5.23
2022-11-26T23:03:44.066Z,5.03
2022-11-26T23:06:16.672Z,5.07
2022-11-26T23:08:47.543Z,4.50
2022-11-26T23:11:19.420Z,5.30
2022-11-26T23:13:50.594Z,4.67
2022-11-26T23:16:21.702Z,5.73
2022-11-26T23:18:54.554Z,5.53
2022-11-26T23:21:27.625Z,5.13
2022-11-26T23:23:57.778Z,4.37
2022-11-26T23:26:31.124Z,5.13
2022-11-26T23:29:02.591Z,4.50
2022-11-26T23:31:34.500Z,4.67
2022-11-26T23:34:07.745Z,4.93
2022-11-26T23:36:38.187Z,5.07
2022-11-26T23:39:10.650Z,5.50
2022-11-26T23:41:40.422Z,5.60
2022-11-26T23:44:10.135Z,4.33
2022-11-26T23:46:39.989Z,4.80
2022-11-26T23:49:12.553Z,4.70
2022-11-26T23:51:42.382Z,4.63
2022-11-26T23:54:12.151Z,4.93
2022-11-26T23:56:44.653Z,4.53
2022-11-26T23:59:15.339Z,4.50
